Time;durP1;ratioP1;P1;durP2;ratioP2;P2;SDS_P1;SDS_P2;PMS_P1;PMS_P2;Temp;Humidity;BMP_temperature;BMP_pressure;BME280_temperature;BME280_humidity;BME280_pressure;Samples;Min_cycle;Max_cycle;Signal;HPM_P1;HPM_P2
2023/05/26 00:01:07;;;;;;;21.38;7.93;;;6.80;99.90;;;;;;5074571;27;20125;-65
2023/05/26 00:03:34;;;;;;;15.05;7.28;;;6.80;99.90;;;;;;5066674;28;20047;-64
2023/05/26 00:06:00;;;;;;;13.85;7.05;;;6.70;99.90;;;;;;5077098;28;20044;-64
2023/05/26 00:08:26;;;;;;;;;;;6.70;99.90;;;;;;5076899;28;20127;-64
2023/05/26 00:10:52;;;;;;;13.93;6.70;;;6.70;99.90;;;;;;5078730;28;19913;-64
2023/05/26 00:13:17;;;;;;;17.30;7.15;;;6.80;99.90;;;;;;5073066;28;20043;-65
2023/05/26 00:15:43;;;;;;;;;;;6.70;99.90;;;;;;5075213;28;20044;-63
2023/05/26 00:18:09;;;;;;;16.67;6.88;;;6.70;99.90;;;;;;5055750;28;19920;-63
2023/05/26 00:20:35;;;;;;;14.32;6.80;;;6.70;99.90;;;;;;5054926;28;20048;-64
2023/05/26 00:23:01;;;;;;;;;;;6.70;99.90;;;;;;5050170;28;20079;-64
2023/05/26 00:25:26;;;;;;;20.10;8.18;;;6.60;99.90;;;;;;5042608;28;19936;-63
2023/05/26 00:27:52;;;;;;;;;;;6.60;99.90;;;;;;5052890;28;20513;-64
2023/05/26 00:30:17;;;;;;;22.85;7.35;;;6.60;99.90;;;;;;5051537;28;20299;-64
2023/05/26 00:32:43;;;;;;;;;;;6.60;99.90;;;;;;5047381;28;20124;-64
2023/05/26 00:35:09;;;;;;;13.32;6.25;;;6.60;99.90;;;;;;5047907;28;19981;-64
2023/05/26 00:37:35;;;;;;;;;;;6.60;99.90;;;;;;5048092;28;20548;-65
2023/05/26 00:40:01;;;;;;;19.58;7.72;;;6.60;99.90;;;;;;5051940;28;19917;-66
2023/05/26 00:42:26;;;;;;;;;;;6.50;99.90;;;;;;5054771;28;20087;-65
2023/05/26 00:44:52;;;;;;;19.95;6.80;;;6.50;99.90;;;;;;5049423;28;20570;-65
2023/05/26 00:47:18;;;;;;;;;;;6.50;99.90;;;;;;5063184;28;20041;-64
2023/05/26 00:49:44;;;;;;;25.70;7.90;;;6.50;99.90;;;;;;5045924;28;20538;-64
2023/05/26 00:52:11;;;;;;;13.48;6.78;;;6.40;99.90;;;;;;5053795;28;20488;-64
2023/05/26 00:54:39;;;;;;;26.50;8.60;;;6.40;99.90;;;;;;5042818;28;20073;-63
2023/05/26 00:57:06;;;;;;;22.88;7.57;;;6.40;99.90;;;;;;5049029;28;20123;-64
2023/05/26 00:59:32;;;;;;;22.85;8.18;;;6.40;99.90;;;;;;5047400;28;20076;-64
2023/05/26 01:02:04;;;;;;;17.63;6.82;;;6.40;99.90;;;;;;5032947;28;20040;-64
2023/05/26 01:04:31;;;;;;;18.38;7.70;;;6.40;99.90;;;;;;5021301;28;20029;-64
2023/05/26 01:06:58;;;;;;;19.95;7.47;;;6.40;99.90;;;;;;5024955;28;20052;-64
2023/05/26 01:09:24;;;;;;;27.20;8.43;;;6.40;99.90;;;;;;5024159;28;20037;-64
2023/05/26 01:11:54;;;;;;;15.27;6.88;;;6.40;99.90;;;;;;5027818;28;20512;-64
2023/05/26 01:14:29;;;;;;;22.00;7.20;;;6.40;99.90;;;;;;5021429;28;20132;-64
2023/05/26 01:17:03;;;;;;;21.88;7.40;;;6.30;99.90;;;;;;5026038;28;20052;-65
2023/05/26 01:19:42;;;;;;;20.90;7.93;;;6.30;99.90;;;;;;5026358;28;20102;-64
2023/05/26 01:22:40;;;;;;;20.65;6.47;;;6.30;99.90;;;;;;5022855;28;20128;-64
2023/05/26 01:25:20;;;;;;;17.10;7.05;;;6.30;99.90;;;;;;5014217;28;20091;-64
2023/05/26 01:28:10;;;;;;;19.55;7.55;;;6.30;99.90;;;;;;5024645;28;20045;-64
2023/05/26 01:30:36;;;;;;;23.85;7.93;;;6.30;99.90;;;;;;5030757;28;20305;-64
2023/05/26 01:33:02;;;;;;;23.63;6.72;;;6.20;99.90;;;;;;5045914;28;20033;-63
2023/05/26 01:35:28;;;;;;;;;;;6.20;99.90;;;;;;5051542;28;20040;-63
2023/05/26 01:37:56;;;;;;;15.60;6.85;;;6.20;99.90;;;;;;5048387;28;19939;-63
2023/05/26 01:40:22;;;;;;;17.85;7.10;;;6.20;99.90;;;;;;5051426;28;20605;-63
2023/05/26 01:43:03;;;;;;;25.75;7.07;;;6.10;99.90;;;;;;5046886;28;20120;-64
2023/05/26 01:45:35;;;;;;;22.50;7.80;;;6.10;99.90;;;;;;5047929;28;20056;-64
2023/05/26 01:48:02;;;;;;;18.63;6.97;;;6.00;99.90;;;;;;5052378;28;20037;-64
2023/05/26 01:50:43;;;;;;;15.50;6.47;;;6.10;99.90;;;;;;5049772;28;20052;-63
2023/05/26 01:53:12;;;;;;;17.85;7.15;;;6.10;99.90;;;;;;5037721;28;20048;-64
2023/05/26 01:55:39;;;;;;;20.75;6.95;;;6.10;99.90;;;;;;5045885;28;20068;-64
2023/05/26 01:58:06;;;;;;;14.32;6.97;;;6.20;99.90;;;;;;5056581;28;20048;-64
2023/05/26 02:00:32;;;;;;;16.27;6.40;;;6.10;99.90;;;;;;5048759;28;20492;-64
2023/05/26 02:02:58;;;;;;;17.42;6.88;;;6.20;99.90;;;;;;5047351;28;20044;-64
2023/05/26 02:05:23;;;;;;;15.50;6.53;;;6.20;99.90;;;;;;5048866;28;20594;-64
2023/05/26 02:07:50;;;;;;;12.98;6.40;;;6.20;99.90;;;;;;5049637;28;20099;-65
2023/05/26 02:10:15;;;;;;;20.38;7.70;;;6.30;99.90;;;;;;5050106;28;20056;-65
2023/05/26 02:12:41;;;;;;;13.65;5.70;;;6.20;99.90;;;;;;5050666;28;20040;-63
2023/05/26 02:15:07;;;;;;;;;;;6.30;99.90;;;;;;5060556;28;20119;-69
2023/05/26 02:17:32;;;;;;;16.77;6.18;;;6.30;99.90;;;;;;5049839;28;19917;-65
2023/05/26 02:19:58;;;;;;;;;;;6.30;99.90;;;;;;5053409;28;20139;-64
2023/05/26 02:22:24;;;;;;;18.20;6.38;;;6.40;99.90;;;;;;5052816;28;20147;-65
2023/05/26 02:24:49;;;;;;;19.80;6.50;;;6.40;99.90;;;;;;5051436;28;20045;-64
2023/05/26 02:27:15;;;;;;;;;;;6.40;99.90;;;;;;5051957;28;20578;-64
2023/05/26 02:29:41;;;;;;;18.08;6.05;;;6.50;99.90;;;;;;5043694;28;19975;-64
2023/05/26 02:32:07;;;;;;;19.45;7.18;;;6.50;99.90;;;;;;5050863;28;20039;-63
2023/05/26 02:34:32;;;;;;;21.98;7.47;;;6.50;99.90;;;;;;5042454;28;20041;-63
2023/05/26 02:36:58;;;;;;;19.88;7.53;;;6.50;99.90;;;;;;5050803;28;20064;-65
2023/05/26 02:39:23;;;;;;;;;;;6.50;99.90;;;;;;5046118;28;20037;-64
2023/05/26 02:41:49;;;;;;;16.63;6.72;;;6.60;99.90;;;;;;5051950;28;19928;-64
2023/05/26 02:44:14;;;;;;;;;;;6.60;99.90;;;;;;5051399;28;20103;-63
2023/05/26 02:46:40;;;;;;;20.10;6.50;;;6.60;99.90;;;;;;5042717;28;19975;-63
2023/05/26 02:49:06;;;;;;;18.90;6.75;;;6.70;99.90;;;;;;5050509;28;20032;-63
2023/05/26 02:51:33;;;;;;;19.60;6.75;;;6.60;99.90;;;;;;5048995;28;20566;-64
2023/05/26 02:53:59;;;;;;;24.10;7.22;;;6.70;99.90;;;;;;5043309;28;20055;-63
2023/05/26 02:56:24;;;;;;;21.70;7.18;;;6.70;99.90;;;;;;5043066;28;20045;-64
2023/05/26 02:58:50;;;;;;;25.40;7.93;;;6.80;99.90;;;;;;5049317;28;20044;-63
2023/05/26 03:01:16;;;;;;;;;;;6.80;99.90;;;;;;5049216;28;20132;-63
2023/05/26 03:03:42;;;;;;;20.98;7.35;;;6.90;99.90;;;;;;5046464;28;19921;-62
2023/05/26 03:06:07;;;;;;;11.90;6.88;;;6.90;99.90;;;;;;5047149;28;20377;-63
2023/05/26 03:08:34;;;;;;;;;;;6.80;99.90;;;;;;5049187;28;20772;-63
2023/05/26 03:10:59;;;;;;;20.25;7.55;;;6.90;99.90;;;;;;5053316;28;19921;-63
2023/05/26 03:13:25;;;;;;;25.73;8.13;;;6.90;99.90;;;;;;5054776;28;20112;-63
2023/05/26 03:15:50;;;;;;;;;;;6.90;99.90;;;;;;5053878;28;20049;-63
2023/05/26 03:18:16;;;;;;;23.08;7.63;;;7.00;99.90;;;;;;5052950;28;19920;-63
2023/05/26 03:20:46;;;;;;;31.77;7.80;;;7.00;99.90;;;;;;5048495;28;20682;-63
2023/05/26 03:23:13;;;;;;;20.55;7.03;;;7.00;99.90;;;;;;5034293;28;20041;-63
2023/05/26 03:25:40;;;;;;;22.00;7.68;;;7.10;99.90;;;;;;5040007;28;20049;-63
2023/05/26 03:28:06;;;;;;;27.98;9.38;;;7.10;99.90;;;;;;5051621;28;20090;-63
2023/05/26 03:30:31;;;;;;;;;;;7.10;99.90;;;;;;5048189;28;20053;-65
2023/05/26 03:32:57;;;;;;;23.63;8.15;;;7.10;99.90;;;;;;5052507;28;19971;-63
2023/05/26 03:35:22;;;;;;;;;;;7.20;99.90;;;;;;5044565;28;20052;-63
2023/05/26 03:37:49;;;;;;;30.08;8.48;;;7.20;99.90;;;;;;5051921;28;19924;-64
2023/05/26 03:40:14;;;;;;;25.58;9.13;;;7.20;99.90;;;;;;5043336;28;20055;-64
2023/05/26 03:42:40;;;;;;;;;;;7.20;99.90;;;;;;5036714;28;20040;-63
2023/05/26 03:45:06;;;;;;;20.92;7.63;;;7.20;99.90;;;;;;5039293;28;20007;-64
2023/05/26 03:47:32;;;;;;;15.57;7.63;;;7.20;99.90;;;;;;5042298;28;20760;-62
2023/05/26 03:49:57;;;;;;;;;;;7.20;99.90;;;;;;5049345;28;20047;-64
2023/05/26 03:52:24;;;;;;;29.70;8.45;;;7.20;99.90;;;;;;5044579;28;19924;-63
2023/05/26 03:54:49;;;;;;;30.77;8.35;;;7.30;99.90;;;;;;5050557;28;20136;-62
2023/05/26 03:57:15;;;;;;;;;;;7.30;99.90;;;;;;5056112;28;20147;-63
2023/05/26 03:59:40;;;;;;;24.73;7.95;;;7.30;99.90;;;;;;5050280;28;19921;-63
2023/05/26 04:02:06;;;;;;;;;;;7.30;99.90;;;;;;5048623;28;20404;-64
2023/05/26 04:04:32;;;;;;;27.30;7.57;;;7.40;99.90;;;;;;5049261;28;19994;-63
2023/05/26 04:06:58;;;;;;;24.25;8.50;;;7.40;99.90;;;;;;5055924;28;20767;-64
2023/05/26 04:09:24;;;;;;;;;;;7.40;99.90;;;;;;5052605;28;20141;-63
2023/05/26 04:11:49;;;;;;;27.60;8.02;;;7.40;99.90;;;;;;5053851;28;19921;-63
2023/05/26 04:14:15;;;;;;;;;;;7.50;99.90;;;;;;5046467;28;20052;-62
2023/05/26 04:16:40;;;;;;;34.20;9.65;;;7.60;99.90;;;;;;5054456;28;19917;-62
2023/05/26 04:19:06;;;;;;;;;;;7.60;99.90;;;;;;5052269;28;20043;-63
2023/05/26 04:21:31;;;;;;;22.17;8.65;;;7.60;99.90;;;;;;5049606;28;19999;-63
2023/05/26 04:23:57;;;;;;;33.58;9.65;;;7.60;99.90;;;;;;5045767;28;20037;-63
2023/05/26 04:26:24;;;;;;;;;;;7.60;99.90;;;;;;5051752;28;20041;-63
2023/05/26 04:28:52;;;;;;;24.83;9.05;;;7.60;99.90;;;;;;5048505;28;19920;-63
2023/05/26 04:31:17;;;;;;;28.67;9.80;;;7.70;99.90;;;;;;5048182;28;20551;-64
2023/05/26 04:33:44;;;;;;;;;;;7.80;99.90;;;;;;5052826;28;20047;-63
2023/05/26 04:36:10;;;;;;;33.90;8.85;;;7.80;99.90;;;;;;5050135;28;19920;-63
2023/05/26 04:38:37;;;;;;;;;;;7.80;99.90;;;;;;5052581;28;20051;-64
2023/05/26 04:41:05;;;;;;;;;;;7.90;99.90;;;;;;5057860;28;20826;-63
2023/05/26 04:43:30;;;;;;;33.22;9.30;;;7.90;99.90;;;;;;5053945;28;19928;-63
2023/05/26 04:45:57;;;;;;;;;;;8.00;99.90;;;;;;5049094;28;20041;-64
2023/05/26 04:48:22;;;;;;;24.15;8.82;;;8.00;99.90;;;;;;5052450;28;19916;-62
2023/05/26 04:50:49;;;;;;;36.40;10.73;;;8.10;99.90;;;;;;5047951;28;20033;-63
2023/05/26 04:53:14;;;;;;;34.90;9.82;;;8.10;99.90;;;;;;5049291;28;20041;-65
2023/05/26 04:55:40;;;;;;;;;;;8.20;99.90;;;;;;5045585;28;20060;-64
2023/05/26 04:58:06;;;;;;;26.45;9.15;;;8.30;99.90;;;;;;5056206;28;19920;-63
2023/05/26 05:00:34;;;;;;;32.95;9.50;;;8.40;99.90;;;;;;5049560;28;20029;-65
2023/05/26 05:03:00;;;;;;;38.78;9.65;;;8.40;99.90;;;;;;5048893;28;20040;-65
2023/05/26 05:05:25;;;;;;;;;;;8.50;99.90;;;;;;5049529;28;20049;-63
2023/05/26 05:07:51;;;;;;;37.55;9.75;;;8.50;99.90;;;;;;5053773;28;19981;-65
2023/05/26 05:10:17;;;;;;;39.50;8.45;;;8.60;99.90;;;;;;5051536;28;20783;-62
2023/05/26 05:12:43;;;;;;;29.98;8.65;;;8.60;99.90;;;;;;5053547;28;20119;-62
2023/05/26 05:15:09;;;;;;;40.38;9.32;;;8.70;99.90;;;;;;5056246;28;20040;-65
2023/05/26 05:17:35;;;;;;;37.63;9.23;;;8.80;99.90;;;;;;5052160;28;20041;-63
2023/05/26 05:20:00;;;;;;;;;;;9.00;99.90;;;;;;5062468;28;20043;-64
2023/05/26 05:22:26;;;;;;;29.63;8.02;;;9.60;99.90;;;;;;5048692;28;19921;-64
2023/05/26 05:24:51;;;;;;;;;;;10.00;99.90;;;;;;5052707;28;20033;-63
2023/05/26 05:27:17;;;;;;;29.65;8.55;;;10.30;99.90;;;;;;5038993;28;19956;-63
2023/05/26 05:29:42;;;;;;;37.38;8.23;;;10.50;99.90;;;;;;5042713;28;20531;-64
2023/05/26 05:32:08;;;;;;;;;;;10.70;99.90;;;;;;5056711;28;20036;-63
2023/05/26 05:34:34;;;;;;;35.55;8.43;;;10.70;99.90;;;;;;5043976;28;20649;-64
2023/05/26 05:37:00;;;;;;;34.05;8.50;;;10.60;99.90;;;;;;5054003;28;20409;-63
2023/05/26 05:39:25;;;;;;;;;;;10.40;99.90;;;;;;5051020;28;20024;-63
2023/05/26 05:41:51;;;;;;;33.15;9.98;;;10.20;99.90;;;;;;5058115;28;20606;-63
2023/05/26 05:44:17;;;;;;;;;;;10.20;99.90;;;;;;5049042;28;20103;-64
2023/05/26 05:46:42;;;;;;;32.78;9.95;;;10.10;99.90;;;;;;5052959;28;19924;-64
2023/05/26 05:49:08;;;;;;;39.90;11.55;;;10.10;99.90;;;;;;5051449;28;20067;-62
2023/05/26 05:51:34;;;;;;;33.40;10.93;;;10.00;99.90;;;;;;5052301;28;20056;-63
2023/05/26 05:53:59;;;;;;;32.35;10.38;;;9.80;99.90;;;;;;5079599;28;20048;-62
2023/05/26 05:56:26;;;;;;;;;;;9.80;99.90;;;;;;5049253;28;20055;-63
2023/05/26 05:58:51;;;;;;;34.78;10.15;;;9.80;99.90;;;;;;5048146;28;19924;-62
2023/05/26 06:01:17;;;;;;;;;;;9.70;99.90;;;;;;5050891;28;20487;-64
2023/05/26 06:03:42;;;;;;;33.17;11.75;;;9.60;99.90;;;;;;5045076;28;20585;-62
2023/05/26 06:06:08;;;;;;;;;;;9.40;99.90;;;;;;5052049;28;20083;-62
2023/05/26 06:08:34;;;;;;;41.17;13.30;;;9.40;99.90;;;;;;5049142;28;20414;-64
2023/05/26 06:10:59;;;;;;;;;;;9.30;99.90;;;;;;5054371;28;20040;-62
2023/05/26 06:13:25;;;;;;;50.00;16.23;;;9.20;99.90;;;;;;5050617;28;20441;-63
2023/05/26 06:15:50;;;;;;;;;;;9.20;99.90;;;;;;5055901;28;20046;-62
2023/05/26 06:18:17;;;;;;;43.63;13.07;;;9.20;99.90;;;;;;5049004;28;20350;-63
2023/05/26 06:20:43;;;;;;;49.40;13.55;;;9.10;99.90;;;;;;5070282;28;20128;-63
2023/05/26 06:23:08;;;;;;;;;;;9.10;99.90;;;;;;5042483;28;20518;-64
2023/05/26 06:25:34;;;;;;;47.63;13.68;;;9.10;99.90;;;;;;5042953;28;19917;-63
2023/05/26 06:27:59;;;;;;;;;;;9.00;99.90;;;;;;5047210;28;20455;-62
2023/05/26 06:30:25;;;;;;;37.00;12.38;;;9.10;99.90;;;;;;5047560;28;19997;-63
2023/05/26 06:32:50;;;;;;;;;;;9.30;99.90;;;;;;5048797;28;20378;-62
2023/05/26 06:35:16;;;;;;;40.17;11.75;;;9.40;99.90;;;;;;5050236;28;19919;-62
2023/05/26 06:37:41;;;;;;;;;;;9.30;99.90;;;;;;5048506;28;20408;-62
2023/05/26 06:40:07;;;;;;;41.95;11.18;;;9.50;99.90;;;;;;5053191;28;19959;-62
2023/05/26 06:42:33;;;;;;;43.65;12.80;;;9.60;99.90;;;;;;5049458;28;20433;-64
2023/05/26 06:44:59;;;;;;;;;;;9.70;99.90;;;;;;5049114;28;20749;-64
2023/05/26 06:47:24;;;;;;;39.03;11.65;;;9.80;99.90;;;;;;5050055;28;20457;-64
2023/05/26 06:49:50;;;;;;;;;;;9.90;99.90;;;;;;5047989;28;20037;-63
2023/05/26 06:52:17;;;;;;;57.63;13.35;;;10.10;99.90;;;;;;5044101;28;19920;-62
2023/05/26 06:54:42;;;;;;;39.60;12.07;;;10.20;99.90;;;;;;5040464;28;20041;-65
2023/05/26 06:57:08;;;;;;;;;;;10.30;99.90;;;;;;5051391;28;20632;-63
2023/05/26 06:59:33;;;;;;;35.58;10.55;;;10.20;99.90;;;;;;5044977;28;19982;-64
2023/05/26 07:01:59;;;;;;;42.65;11.63;;;10.30;99.90;;;;;;5049430;28;20136;-63
2023/05/26 07:04:24;;;;;;;;;;;10.40;99.90;;;;;;5046826;28;20039;-63
2023/05/26 07:06:50;;;;;;;39.22;9.65;;;10.30;99.90;;;;;;5051418;28;19924;-63
2023/05/26 07:09:16;;;;;;;;;;;10.30;99.90;;;;;;5049708;28;20573;-63
2023/05/26 07:11:41;;;;;;;41.53;11.38;;;10.40;99.90;;;;;;5053744;28;19916;-63
2023/05/26 07:14:07;;;;;;;40.22;12.10;;;10.30;99.90;;;;;;5051719;28;20098;-63
2023/05/26 07:16:32;;;;;;;;;;;10.30;99.90;;;;;;5052918;28;20522;-64
2023/05/26 07:18:58;;;;;;;47.78;12.27;;;10.50;99.90;;;;;;5044349;28;20526;-63
2023/05/26 07:21:25;;;;;;;;;;;10.50;99.90;;;;;;5058694;28;20094;-62
2023/05/26 07:23:51;;;;;;;37.55;11.68;;;10.70;99.90;;;;;;5043578;28;19948;-62
2023/05/26 07:26:17;;;;;;;38.80;12.23;;;10.80;99.90;;;;;;5052740;28;20413;-64
2023/05/26 07:28:42;;;;;;;;;;;10.90;99.90;;;;;;5047608;28;20041;-64
2023/05/26 07:31:09;;;;;;;46.35;14.55;;;10.80;99.90;;;;;;5052904;28;19920;-62
2023/05/26 07:33:35;;;;;;;43.50;11.70;;;10.70;99.90;;;;;;5045723;28;20058;-64
2023/05/26 07:36:00;;;;;;;;;;;10.70;99.90;;;;;;5054014;28;20419;-62
2023/05/26 07:38:26;;;;;;;41.03;13.45;;;10.80;99.90;;;;;;5046746;28;19942;-62
2023/05/26 07:40:53;;;;;;;;;;;10.90;99.90;;;;;;5057405;28;20094;-62
2023/05/26 07:43:18;;;;;;;35.83;10.63;;;11.10;99.90;;;;;;5056431;28;19931;-64
2023/05/26 07:45:44;;;;;;;;;;;11.00;99.90;;;;;;5056587;28;20052;-59
2023/05/26 07:48:10;;;;;;;41.95;11.15;;;11.10;99.90;;;;;;5050862;28;19920;-62
2023/05/26 07:50:35;;;;;;;;;;;10.80;99.90;;;;;;5050199;28;20045;-62
2023/05/26 07:53:01;;;;;;;41.83;11.70;;;10.90;99.90;;;;;;5050323;28;19923;-62
2023/05/26 07:55:27;;;;;;;28.63;10.82;;;10.70;99.90;;;;;;5044061;28;20049;-61
2023/05/26 07:57:52;;;;;;;;;;;10.80;99.90;;;;;;5050900;28;20094;-63
2023/05/26 08:00:18;;;;;;;36.95;11.40;;;10.60;99.90;;;;;;5047202;28;19927;-62
2023/05/26 08:02:46;;;;;;;;;;;10.50;99.90;;;;;;5044400;28;20043;-62
2023/05/26 08:05:12;;;;;;;30.30;10.82;;;10.40;99.90;;;;;;5043231;28;20015;-61
2023/05/26 08:07:37;;;;;;;;;;;10.50;99.90;;;;;;5043393;28;20105;-62
2023/05/26 08:10:03;;;;;;;40.42;11.98;;;10.40;99.90;;;;;;5051557;28;19920;-62
2023/05/26 08:12:29;;;;;;;38.40;11.02;;;10.40;99.90;;;;;;5054808;28;20412;-62
2023/05/26 08:14:55;;;;;;;;;;;10.40;99.90;;;;;;5054392;28;20029;-61
2023/05/26 08:17:20;;;;;;;37.30;10.80;;;10.50;99.90;;;;;;5047870;28;19921;-61
2023/05/26 08:19:46;;;;;;;29.52;11.55;;;10.60;99.90;;;;;;5049930;28;20025;-62
2023/05/26 08:22:12;;;;;;;;;;;10.40;99.90;;;;;;5053559;28;20032;-61
2023/05/26 08:24:37;;;;;;;32.20;11.10;;;10.40;99.90;;;;;;5040610;28;20427;-62
2023/05/26 08:27:03;;;;;;;;;;;10.30;99.90;;;;;;5062571;28;20880;-61
2023/05/26 08:29:28;;;;;;;40.00;12.70;;;10.20;99.90;;;;;;5045595;28;20641;-61
2023/05/26 08:31:54;;;;;;;;;;;10.20;99.90;;;;;;5057008;28;20109;-61
2023/05/26 08:34:19;;;;;;;51.15;13.50;;;10.30;99.90;;;;;;5046516;28;19920;-61
2023/05/26 08:36:45;;;;;;;;;;;10.30;99.90;;;;;;5061534;28;20470;-61
2023/05/26 08:39:11;;;;;;;44.10;14.15;;;10.30;99.90;;;;;;5049553;28;20004;-61
2023/05/26 08:41:47;;;;;;;;;;;10.20;99.90;;;;;;5051660;28;20492;-63
2023/05/26 08:44:16;;;;;;;36.33;13.32;;;10.20;99.90;;;;;;5046059;28;20395;-61
2023/05/26 08:46:43;;;;;;;44.35;13.75;;;10.30;99.90;;;;;;5045645;28;20044;-60
2023/05/26 08:49:11;;;;;;;41.35;13.52;;;10.50;99.90;;;;;;5053571;28;20111;-61
2023/05/26 08:51:43;;;;;;;42.88;13.55;;;10.70;99.90;;;;;;5039845;28;20045;-60
2023/05/26 08:54:08;;;;;;;37.47;14.05;;;10.80;99.90;;;;;;5046292;28;20115;-62
2023/05/26 08:56:34;;;;;;;;;;;10.90;99.90;;;;;;5047794;28;20128;-62
2023/05/26 08:59:02;;;;;;;39.58;14.23;;;11.00;99.90;;;;;;5051030;28;19952;-63
2023/05/26 09:01:27;;;;;;;45.75;14.30;;;11.00;99.90;;;;;;5047954;28;20166;-63
2023/05/26 09:03:53;;;;;;;;;;;11.10;99.90;;;;;;5047118;28;20029;-61
2023/05/26 09:06:18;;;;;;;54.08;15.50;;;11.20;99.90;;;;;;5046157;28;19921;-60
2023/05/26 09:08:44;;;;;;;52.70;14.98;;;11.20;99.90;;;;;;5039673;28;20063;-63
2023/05/26 09:11:20;;;;;;;54.28;17.02;;;11.20;99.90;;;;;;5051706;28;20035;-62
2023/05/26 09:13:51;;;;;;;53.60;15.48;;;11.20;99.90;;;;;;5041289;28;20043;-63
2023/05/26 09:16:17;;;;;;;56.55;13.73;;;11.10;99.90;;;;;;5053039;28;20519;-60
2023/05/26 09:18:43;;;;;;;;;;;11.10;99.90;;;;;;5047371;28;20041;-61
2023/05/26 09:21:08;;;;;;;44.70;13.95;;;11.20;99.90;;;;;;5054611;28;19940;-61
2023/05/26 09:23:34;;;;;;;;;;;11.10;99.90;;;;;;5044333;28;20041;-62
2023/05/26 09:26:05;;;;;;;52.08;13.23;;;11.30;99.90;;;;;;5047111;28;19924;-63
2023/05/26 09:28:30;;;;;;;46.88;13.82;;;11.30;99.90;;;;;;5044053;28;20041;-60
2023/05/26 09:30:56;;;;;;;;;;;11.40;99.90;;;;;;5043217;28;20095;-63
2023/05/26 09:33:21;;;;;;;57.85;14.40;;;11.40;99.90;;;;;;5050786;28;19931;-60
2023/05/26 09:35:48;;;;;;;;;;;11.40;99.90;;;;;;5052039;28;20048;-62
2023/05/26 09:38:16;;;;;;;49.63;14.43;;;11.40;99.90;;;;;;5039399;28;20557;-61
2023/05/26 09:40:47;;;;;;;47.80;13.93;;;11.60;99.90;;;;;;5050763;28;20049;-63
2023/05/26 09:43:17;;;;;;;46.17;14.20;;;11.80;99.90;;;;;;5050187;28;20037;-63
2023/05/26 09:45:42;;;;;;;48.45;13.35;;;12.00;99.90;;;;;;5053295;28;20040;-62
2023/05/26 09:48:08;;;;;;;;;;;12.10;99.90;;;;;;5043598;28;20528;-62
2023/05/26 09:50:36;;;;;;;44.92;13.30;;;11.80;99.90;;;;;;5049064;28;20518;-62
2023/05/26 09:53:04;;;;;;;50.63;14.27;;;12.10;99.90;;;;;;5050917;28;20036;-63
2023/05/26 09:55:30;;;;;;;45.45;12.38;;;12.00;99.90;;;;;;5044302;28;20051;-61
2023/05/26 09:58:07;;;;;;;57.10;12.65;;;12.10;99.90;;;;;;5053180;28;20044;-63
2023/05/26 10:00:33;;;;;;;;;;;12.30;99.90;;;;;;5049428;28;20040;-63
2023/05/26 10:03:03;;;;;;;43.72;12.63;;;12.10;99.90;;;;;;5044647;28;19920;-63
2023/05/26 10:05:31;;;;;;;47.67;11.52;;;12.30;99.90;;;;;;5041655;28;20056;-63
2023/05/26 10:07:58;;;;;;;43.10;11.10;;;12.50;99.90;;;;;;5052854;28;20441;-63
2023/05/26 10:10:25;;;;;;;40.22;10.90;;;12.70;99.90;;;;;;5042176;28;20069;-64
2023/05/26 10:12:52;;;;;;;52.67;13.23;;;13.00;99.90;;;;;;5044335;28;20041;-64
2023/05/26 10:15:18;;;;;;;40.10;11.25;;;12.80;99.90;;;;;;5050418;28;20583;-64
2023/05/26 10:17:44;;;;;;;;;;;12.90;99.90;;;;;;5047713;28;20119;-64
2023/05/26 10:20:10;;;;;;;43.10;10.90;;;12.90;99.90;;;;;;5057264;28;19916;-65
2023/05/26 10:22:46;;;;;;;44.28;11.88;;;12.90;99.90;;;;;;5056929;28;20040;-65
2023/05/26 10:25:27;;;;;;;46.30;11.55;;;12.90;99.90;;;;;;5042323;28;20080;-63
2023/05/26 10:28:13;;;;;;;38.67;10.32;;;12.90;99.90;;;;;;5044524;28;20053;-65
2023/05/26 10:30:41;;;;;;;49.38;11.10;;;13.10;99.90;;;;;;5051375;28;20044;-61
2023/05/26 10:33:09;;;;;;;44.13;11.18;;;13.10;99.90;;;;;;5050423;28;20112;-63
2023/05/26 10:35:35;;;;;;;41.67;10.18;;;13.00;99.90;;;;;;5049016;28;20773;-63
2023/05/26 10:38:03;;;;;;;;;;;13.20;99.90;;;;;;5050218;28;20043;-63
2023/05/26 10:40:32;;;;;;;48.55;13.25;;;13.40;99.90;;;;;;5055435;28;19920;-63
2023/05/26 10:43:00;;;;;;;38.70;11.90;;;13.30;99.90;;;;;;5049502;28;20083;-63
2023/05/26 10:45:32;;;;;;;44.25;11.45;;;13.40;99.90;;;;;;5052549;28;20534;-64
2023/05/26 10:48:05;;;;;;;30.92;9.85;;;13.60;99.90;;;;;;5050106;28;20040;-62
2023/05/26 10:50:59;;;;;;;28.42;9.15;;;13.50;99.90;;;;;;5055782;28;20074;-64
2023/05/26 10:53:29;;;;;;;43.58;11.27;;;13.60;99.90;;;;;;5047638;28;20043;-62
2023/05/26 10:56:02;;;;;;;24.05;9.68;;;13.50;99.90;;;;;;5044281;28;20649;-63
2023/05/26 10:58:32;;;;;;;32.22;9.90;;;13.40;99.90;;;;;;5048452;28;20040;-63
2023/05/26 11:01:09;;;;;;;42.63;11.13;;;13.40;99.90;;;;;;5050284;28;20048;-63
2023/05/26 11:03:43;;;;;;;40.10;10.05;;;13.50;99.90;;;;;;5043688;28;20044;-64
2023/05/26 11:06:13;;;;;;;39.08;11.32;;;13.60;99.90;;;;;;5049996;28;20037;-63
2023/05/26 11:08:50;;;;;;;38.05;10.05;;;13.60;99.90;;;;;;5048745;28;20029;-63
2023/05/26 11:11:31;;;;;;;;;;;13.80;99.90;;;;;;5037527;28;20037;-63
2023/05/26 11:14:04;;;;;;;35.17;10.13;;;13.90;99.90;;;;;;5050264;28;19976;-63
2023/05/26 11:16:35;;;;;;;39.53;11.13;;;14.30;99.90;;;;;;5052592;28;20072;-64
2023/05/26 11:19:04;;;;;;;32.17;9.68;;;14.50;99.90;;;;;;5050768;28;20040;-63
2023/05/26 11:21:32;;;;;;;31.48;10.20;;;14.60;99.90;;;;;;5053360;28;20036;-65
2023/05/26 11:23:59;;;;;;;31.95;10.10;;;14.60;99.90;;;;;;5038739;28;20041;-63
2023/05/26 11:26:27;;;;;;;42.10;11.07;;;14.50;99.90;;;;;;5043784;28;20052;-64
2023/05/26 11:28:54;;;;;;;38.80;9.75;;;14.30;99.90;;;;;;5045443;28;20033;-62
2023/05/26 11:31:22;;;;;;;38.45;10.25;;;14.00;99.90;;;;;;5048024;28;20044;-63
2023/05/26 11:33:48;;;;;;;31.20;9.43;;;13.90;99.90;;;;;;5045735;28;20049;-62
2023/05/26 11:36:19;;;;;;;30.05;9.57;;;14.30;99.90;;;;;;5051359;28;20512;-63
2023/05/26 11:38:47;;;;;;;30.08;9.63;;;14.50;99.90;;;;;;5047644;28;20071;-62
2023/05/26 11:41:17;;;;;;;43.28;11.50;;;14.80;99.90;;;;;;5051165;28;20036;-63
2023/05/26 11:43:46;;;;;;;40.97;11.23;;;14.60;99.90;;;;;;5047763;28;20048;-61
2023/05/26 11:46:15;;;;;;;37.03;9.38;;;14.50;99.90;;;;;;5050023;28;20094;-62
2023/05/26 11:48:41;;;;;;;32.00;9.90;;;14.30;99.90;;;;;;5050422;28;20056;-63
2023/05/26 11:51:14;;;;;;;33.05;9.73;;;14.50;99.90;;;;;;5049868;28;20037;-61
2023/05/26 11:53:42;;;;;;;41.00;8.82;;;14.60;99.90;;;;;;5044683;28;20045;-64
2023/05/26 11:56:11;;;;;;;34.72;8.77;;;14.90;99.90;;;;;;5044666;28;20049;-64
2023/05/26 11:58:40;;;;;;;33.30;9.85;;;15.00;99.90;;;;;;5047962;28;20065;-62
2023/05/26 12:01:07;;;;;;;33.15;9.38;;;15.20;99.90;;;;;;5042683;28;20122;-62
2023/05/26 12:03:36;;;;;;;31.02;8.70;;;15.20;99.90;;;;;;5052131;28;20041;-64
2023/05/26 12:06:07;;;;;;;43.22;9.18;;;15.00;99.90;;;;;;5044983;28;20073;-63
2023/05/26 12:08:53;;;;;;;34.25;8.73;;;15.30;99.90;;;;;;5052926;28;20041;-63
2023/05/26 12:11:30;;;;;;;26.92;7.68;;;15.30;99.90;;;;;;5048135;28;20047;-60
2023/05/26 12:14:10;;;;;;;32.75;8.07;;;15.40;99.90;;;;;;5050021;28;20036;-62
2023/05/26 12:16:38;;;;;;;27.65;7.70;;;15.40;99.90;;;;;;5054106;28;20065;-63
2023/05/26 12:19:06;;;;;;;29.63;7.03;;;15.70;99.90;;;;;;5054972;28;20040;-62
2023/05/26 12:21:40;;;;;;;32.35;7.85;;;15.60;99.90;;;;;;5057380;28;20028;-63
2023/05/26 12:24:05;;;;;;;26.92;7.13;;;15.70;99.90;;;;;;5050946;28;20590;-62
2023/05/26 12:26:31;;;;;;;;;;;15.60;99.90;;;;;;5051091;28;20037;-63
2023/05/26 12:29:10;;;;;;;35.90;7.50;;;15.60;99.90;;;;;;5048940;28;20629;-62
2023/05/26 12:31:39;;;;;;;34.97;7.00;;;15.40;99.90;;;;;;5051302;28;20219;-63
2023/05/26 12:34:06;;;;;;;29.80;6.55;;;15.70;99.90;;;;;;5051735;28;20284;-64
2023/05/26 12:36:32;;;;;;;30.30;6.75;;;15.60;99.90;;;;;;5054264;28;20420;-61
2023/05/26 12:38:58;;;;;;;26.25;6.20;;;15.50;99.90;;;;;;5052463;28;20118;-61
2023/05/26 12:41:23;;;;;;;;;;;15.50;99.90;;;;;;5054973;28;20526;-65
2023/05/26 12:43:49;;;;;;;29.90;6.28;;;15.40;99.90;;;;;;5050468;28;19924;-61
2023/05/26 12:46:14;;;;;;;;;;;15.60;99.90;;;;;;5055426;28;20043;-64
2023/05/26 12:48:40;;;;;;;24.13;7.05;;;15.50;99.90;;;;;;5055122;28;19927;-63
2023/05/26 12:51:05;;;;;;;;;;;15.40;99.90;;;;;;5052315;28;20059;-64
2023/05/26 12:53:31;;;;;;;42.97;8.18;;;15.30;99.90;;;;;;5049202;28;19917;-61
2023/05/26 12:55:56;;;;;;;;;;;15.30;99.90;;;;;;5045834;28;20060;-62
2023/05/26 12:58:22;;;;;;;31.50;6.22;;;15.30;99.90;;;;;;5057661;28;20782;-65
2023/05/26 13:00:48;;;;;;;;;;;15.50;99.90;;;;;;5043187;28;20385;-63
2023/05/26 13:03:14;;;;;;;34.10;6.88;;;15.80;99.90;;;;;;5053164;28;20281;-63